Crystal, Minnesota
Current Conditions -  °F | °C
As of 10:29 AM on Friday 19 Dec 2014 (Local Time) from KMIC Reporting Station
Haze Haze  
Wind Chill: 17°   Ceiling: 2000
Heat Index: 26°   Visibility: 5mi
Dew Point: 21°   Wind: 9mph
Humidity: 81%   Direction: 140°SE
Pressure: 30.23"   Gusts: NA
Location:  45.03°N, 93.36°W
Report Text: KMIC 191629Z 14008KT 5SM HZ SCT013 BKN020 OVC028 M03/M06 A3023 RMK AO2 T10331061
Loading
Personal Weather Stations






























Interactive Weather Map New forecast layout! Learn more

10-Day Weather Forecast

Advertisements
Track Severe Weather on mobile